Maran Poseidon — SVAV3 — position and weather

sailwx.info

Track history (hours):
 
Tides and Currents Weather Stations Pressure Air Temp Water Temp Dewpoint Dewpoint Depression Visibility Wind Speed Wind Dir Waves Ship Positions

Maran Poseidon

Last reported at 2014-Sep-19 23:31 UTC. Time now 2014-Sep-19 23:58 UTC.
Position N 48°36' W 122°34'.

Length 274 m; draft 10.2 m.

Type: Tanker. MMSI: 240959000.

Date/timePositionNaut miles runAvg speedWind from/ knotsBaromVisibWave heightAir tempDewpointWater temp
2014-Sep-19 23:31N 48°36' W 122°34'0 0.0
2014-Sep-19 22:31N 48°36' W 122°34'0 0.0
2014-Sep-19 21:31N 48°36' W 122°34'0 0.1
2014-Sep-19 20:22N 48°36' W 122°34'0 0.1
2014-Sep-19 19:25N 48°36' W 122°34'0 0.1
2014-Sep-19 18:31N 48°36' W 122°34'0 0.0
2014-Sep-19 17:31N 48°36' W 122°34'0 0.1
2014-Sep-19 16:31N 48°36' W 122°34'0 0.2
2014-Sep-19 15:31N 48°36' W 122°34'0 0.1
2014-Sep-19 14:31N 48°36' W 122°34'0 0.0
2014-Sep-19 13:31N 48°36' W 122°34'0 0.0
2014-Sep-19 12:28N 48°36' W 122°34'0 0.1
2014-Sep-19 11:28N 48°36' W 122°34'0 0.1
2014-Sep-19 10:25N 48°36' W 122°34'0 0.1
2014-Sep-19 09:28N 48°36' W 122°34'0 0.0
2014-Sep-19 08:31N 48°36' W 122°34'0 0.0
2014-Sep-19 07:31N 48°36' W 122°34'0 0.0
2014-Sep-19 06:28N 48°36' W 122°34'0 0.0
2014-Sep-19 05:31N 48°36' W 122°34'0 0.1
2014-Sep-19 04:28N 48°36' W 122°34'0 0.1
2014-Sep-19 03:28N 48°36' W 122°34'0 0.1
2014-Sep-19 02:31N 48°36' W 122°34'0 0.1
2014-Sep-19 01:31N 48°36' W 122°34'0 0.1
2014-Sep-19 00:31N 48°36' W 122°34'0 0.1
2014-Sep-18 23:31N 48°36' W 122°34'0 0.1
2014-Sep-18 22:31N 48°36' W 122°34'0 0.1
2014-Sep-18 21:31N 48°36' W 122°34'0 0.0
2014-Sep-18 20:31N 48°36' W 122°34'0 0.0
2014-Sep-18 19:31N 48°36' W 122°34'0 0.0
2014-Sep-18 18:31N 48°36' W 122°34'0 0.0
2014-Sep-18 17:31N 48°36' W 122°34'0 0.1
2014-Sep-18 16:31N 48°36' W 122°34'0 0.1
2014-Sep-18 15:19N 48°36' W 122°34'0 0.1
2014-Sep-18 14:31N 48°36' W 122°34'0 0.0
2014-Sep-18 13:31N 48°36' W 122°34'0 0.0
2014-Sep-18 12:31N 48°36' W 122°34'0 0.1
2014-Sep-18 11:25N 48°36' W 122°34'0 0.0
2014-Sep-18 10:25N 48°36' W 122°34'0 0.0
2014-Sep-18 09:31N 48°36' W 122°34'0 0.0
2014-Sep-18 08:31N 48°36' W 122°34'0 0.0
2014-Sep-18 07:28N 48°36' W 122°34'0 0.0
2014-Sep-18 06:31N 48°36' W 122°34'0 0.1
2014-Sep-18 05:28N 48°36' W 122°34'0 0.0
2014-Sep-18 04:31N 48°36' W 122°34'0 0.2
2014-Sep-18 03:31N 48°36' W 122°34'0 0.1
2014-Sep-18 02:31N 48°36' W 122°34'0 0.0
2014-Sep-18 01:31N 48°36' W 122°34'0 0.0
2014-Sep-18 00:31N 48°36' W 122°34'0 0.0
2014-Sep-17 23:31N 48°36' W 122°34'0 0.2
2014-Sep-17 22:33N 48°36' W 122°34'3 2.9
2014-Sep-17 21:33N 48°38' W 122°37'10 9.7
2014-Sep-17 20:33N 48°46' W 122°46'6 5.6
2014-Sep-17 19:32N 48°52' W 122°46'0 0.0
2014-Sep-16 17:05N 48°52' W 122°46'0 0.4
2014-Sep-16 16:33N 48°52' W 122°46'5 4.8
2014-Sep-16 15:33N 48°47' W 122°46'1110.6
2014-Sep-16 14:33N 48°36' W 122°45'1010.0
2014-Sep-16 13:33N 48°26' W 122°46'1111.1
2014-Sep-16 12:33N 48°19' W 122°59'1111.5
2014-Sep-16 11:33N 48°13' W 123°14'9 8.6
2014-Sep-16 10:33N 48°08' W 123°24'0 0.2
2014-Sep-16 09:31N 48°08' W 123°24'0 0.0
2014-Sep-16 08:28N 48°08' W 123°24'0 0.0
2014-Sep-16 07:31N 48°08' W 123°24'0 0.1
2014-Sep-16 06:31N 48°08' W 123°24'0 0.1
2014-Sep-16 05:31N 48°08' W 123°24'0 0.1
2014-Sep-16 04:31N 48°08' W 123°24'0 0.0
2014-Sep-16 03:31N 48°08' W 123°24'0 0.1
2014-Sep-16 02:31N 48°08' W 123°24'0 0.1
2014-Sep-16 01:31N 48°08' W 123°24'0 0.0
2014-Sep-16 00:25N 48°08' W 123°24'0 0.1
2014-Sep-15 23:31N 48°08' W 123°24'0 0.1
2014-Sep-15 22:31N 48°08' W 123°24'0 0.0
2014-Sep-15 21:28N 48°08' W 123°24'0 0.0
2014-Sep-15 20:31N 48°08' W 123°24'0 0.1
2014-Sep-15 19:31N 48°08' W 123°24'0 0.1
2014-Sep-15 18:31N 48°08' W 123°24'0 0.0
2014-Sep-15 17:31N 48°08' W 123°24'0 0.0
2014-Sep-15 16:31N 48°08' W 123°24'0 0.0
2014-Sep-15 15:31N 48°08' W 123°24'0 0.1
2014-Sep-15 14:28N 48°08' W 123°24'0 0.1
2014-Sep-15 13:31N 48°08' W 123°25'0 0.1
2014-Sep-15 12:28N 48°08' W 123°25'0 0.1
2014-Sep-15 11:31N 48°08' W 123°25'0 0.0
2014-Sep-15 10:31N 48°08' W 123°25'0 0.2
2014-Sep-15 09:31N 48°08' W 123°24'0 0.0
2014-Sep-15 08:31N 48°08' W 123°24'0 0.0
2014-Sep-15 07:31N 48°08' W 123°24'0 0.0
2014-Sep-15 06:31N 48°08' W 123°24'0 0.0
2014-Sep-15 05:25N 48°08' W 123°24'0 0.0
2014-Sep-15 04:31N 48°08' W 123°24'0 0.1
2014-Sep-15 03:28N 48°08' W 123°25'0 0.1
2014-Sep-15 02:28N 48°08' W 123°25'0 0.1
2014-Sep-15 01:28N 48°08' W 123°25'0 0.1
2014-Sep-15 00:22N 48°08' W 123°24'0 0.1
2014-Sep-14 23:31N 48°08' W 123°24'0 0.1
2014-Sep-14 22:25N 48°08' W 123°24'0 0.0
2014-Sep-14 21:16N 48°08' W 123°25'0 0.0
2014-Sep-14 20:16N 48°08' W 123°25'0 0.1
2014-Sep-14 19:31N 48°08' W 123°24'0 0.2
2014-Sep-14 18:28N 48°08' W 123°24'0 0.0
2014-Sep-14 17:31N 48°08' W 123°24'0 0.0
2014-Sep-14 16:28N 48°08' W 123°24'0 0.0
2014-Sep-14 15:31N 48°08' W 123°24'0 0.0
2014-Sep-14 14:28N 48°08' W 123°24'0 0.0
2014-Sep-14 13:31N 48°08' W 123°24'0 0.2
2014-Sep-14 12:28N 48°08' W 123°24'0 0.1
2014-Sep-14 11:31N 48°08' W 123°25'0 0.0
2014-Sep-14 10:22N 48°08' W 123°25'0 0.2
2014-Sep-14 09:28N 48°08' W 123°24'0 0.2
2014-Sep-14 08:31N 48°08' W 123°25'0 0.1
2014-Sep-14 07:31N 48°08' W 123°24'0 0.0
2014-Sep-14 06:31N 48°08' W 123°24'0 0.0
2014-Sep-14 05:31N 48°08' W 123°24'0 0.0
2014-Sep-14 04:31N 48°08' W 123°24'0 0.0
2014-Sep-14 03:25N 48°08' W 123°24'0 0.1
2014-Sep-14 02:25N 48°08' W 123°24'0 0.1
2014-Sep-14 01:31N 48°08' W 123°25'0 0.0
2014-Sep-13 21:31N 48°08' W 123°24'0 0.1
2014-Sep-13 20:31N 48°08' W 123°25'0 0.1
2014-Sep-13 19:25N 48°08' W 123°24'0 0.1
2014-Sep-13 18:31N 48°08' W 123°24'0 0.0
2014-Sep-13 17:16N 48°08' W 123°24'0 0.0
2014-Sep-13 16:25N 48°08' W 123°24'0 0.0
2014-Sep-13 15:25N 48°08' W 123°24'0 0.0
2014-Sep-13 14:31N 48°08' W 123°24'0 0.0
2014-Sep-13 13:31N 48°08' W 123°24'0 0.0
2014-Sep-13 12:31N 48°08' W 123°24'0 0.2
2014-Sep-13 11:31N 48°08' W 123°24'0 0.1
2014-Sep-13 10:31N 48°08' W 123°25'0 0.1
2014-Sep-13 09:28N 48°08' W 123°24'0 0.1
2014-Sep-13 08:31N 48°08' W 123°24'0 0.1
2014-Sep-13 07:31N 48°08' W 123°25'0 0.2
2014-Sep-13 06:31N 48°08' W 123°24'0 0.0
2014-Sep-13 05:28N 48°08' W 123°24'0 0.0
2014-Sep-13 04:31N 48°08' W 123°24'0 0.0
2014-Sep-13 03:31N 48°08' W 123°24'0 0.0
2014-Sep-13 02:28N 48°08' W 123°24'0 0.0
2014-Sep-13 01:31N 48°08' W 123°24'0 0.0
2014-Sep-13 00:31N 48°08' W 123°24'0 0.1
2014-Sep-12 23:28N 48°08' W 123°24'0 0.1
2014-Sep-12 22:31N 48°08' W 123°25'0 0.0
2014-Sep-12 21:31N 48°08' W 123°25'0 0.0
2014-Sep-12 20:22N 48°08' W 123°25'0 0.1
2014-Sep-12 19:31N 48°08' W 123°25'0 0.1
2014-Sep-12 18:31N 48°08' W 123°24'0 0.2
2014-Sep-12 17:31N 48°08' W 123°24'0 0.0
2014-Sep-12 16:28N 48°08' W 123°24'0 0.0
2014-Sep-12 15:22N 48°08' W 123°24'0 0.0
2014-Sep-12 14:31N 48°08' W 123°24'0 0.0
2014-Sep-12 13:31N 48°08' W 123°24'0 0.0
2014-Sep-12 12:28N 48°08' W 123°24'0 0.0
2014-Sep-12 11:28N 48°08' W 123°24'0 0.2
2014-Sep-12 10:31N 48°08' W 123°24'0 0.1
2014-Sep-12 09:19N 48°08' W 123°25'0 0.1
2014-Sep-12 08:31N 48°08' W 123°25'0 0.0
2014-Sep-12 07:31N 48°08' W 123°25'0 0.0
2014-Sep-12 06:31N 48°08' W 123°25'0 0.1
2014-Sep-12 05:31N 48°08' W 123°24'0 0.0
2014-Sep-12 04:31N 48°08' W 123°24'0 0.0
2014-Sep-12 03:25N 48°08' W 123°24'0 0.0
2014-Sep-12 02:31N 48°08' W 123°24'0 0.0
2014-Sep-12 01:31N 48°08' W 123°24'0 0.0
2014-Sep-12 00:31N 48°08' W 123°24'0 0.0
2014-Sep-11 23:31N 48°08' W 123°24'0 0.1
2014-Sep-11 22:28N 48°08' W 123°24'0 0.1
2014-Sep-11 21:22N 48°08' W 123°25'0 0.0
2014-Sep-11 20:31N 48°08' W 123°25'0 0.0
2014-Sep-11 19:31N 48°08' W 123°24'0 0.1
2014-Sep-11 18:31N 48°08' W 123°25'0 0.1
2014-Sep-11 17:31N 48°08' W 123°24'0 0.0
2014-Sep-11 16:22N 48°08' W 123°24'0 0.0
2014-Sep-11 15:31N 48°08' W 123°24'0 0.1
2014-Sep-11 14:25N 48°08' W 123°24'0 0.0
2014-Sep-11 13:31N 48°08' W 123°24'0 0.0
2014-Sep-11 12:32N 48°08' W 123°24'0 0.0
2014-Sep-11 11:25N 48°08' W 123°24'0 0.0
2014-Sep-11 10:31N 48°08' W 123°24'0 0.2
2014-Sep-11 09:25N 48°08' W 123°24'0 0.1
2014-Sep-11 08:28N 48°08' W 123°24'0 0.1
2014-Sep-11 07:31N 48°08' W 123°24'0 0.1
2014-Sep-11 06:16N 48°08' W 123°24'0 0.1
2014-Sep-11 05:31N 48°08' W 123°25'0 0.1
2014-Sep-11 04:28N 48°08' W 123°24'0 0.1
2014-Sep-11 03:22N 48°08' W 123°24'0 0.0
2014-Sep-11 02:31N 48°08' W 123°24'0 0.0
2014-Sep-11 01:31N 48°08' W 123°24'0 0.0
2014-Sep-11 00:25N 48°08' W 123°24'0 0.0
2014-Sep-10 23:31N 48°08' W 123°24'0 0.0
2014-Sep-10 22:31N 48°08' W 123°24'0 0.1
2014-Sep-10 21:28N 48°08' W 123°24'0 0.1
2014-Sep-10 20:31N 48°08' W 123°25'0 0.1
2014-Sep-10 19:31N 48°08' W 123°25'0 0.1
2014-Sep-10 18:28N 48°08' W 123°24'0 0.0
2014-Sep-10 17:31N 48°08' W 123°24'0 0.1
2014-Sep-10 16:28N 48°08' W 123°25'0 0.1
2014-Sep-10 15:31N 48°08' W 123°24'0 0.0
2014-Sep-10 14:31N 48°08' W 123°24'0 0.0
2014-Sep-10 13:31N 48°08' W 123°24'0 0.0
2014-Sep-10 12:28N 48°08' W 123°24'0 0.0
2014-Sep-10 11:31N 48°08' W 123°24'0 0.1
2014-Sep-10 10:31N 48°08' W 123°24'0 0.0
2014-Sep-10 09:31N 48°08' W 123°24'0 0.2
2014-Sep-10 08:31N 48°08' W 123°24'0 0.0
2014-Sep-10 07:31N 48°08' W 123°24'0 0.1
2014-Sep-10 06:31N 48°08' W 123°24'0 0.1
2014-Sep-10 05:31N 48°08' W 123°24'0 0.1
2014-Sep-10 04:28N 48°08' W 123°24'0 0.1
2014-Sep-10 03:25N 48°08' W 123°24'0 0.1
2014-Sep-10 02:31N 48°08' W 123°24'0 0.0
2014-Sep-10 01:28N 48°08' W 123°24'0 0.0
2014-Sep-10 00:31N 48°08' W 123°24'  
Track history (hours):
 
Tides and Currents Weather Stations Pressure Air Temp Water Temp Dewpoint Dewpoint Depression Visibility Wind Speed Wind Dir Waves Ship Positions

Maran Poseidon

Last reported at 2014-Sep-19 23:31 UTC. Time now 2014-Sep-19 23:58 UTC.
Position N 48°36' W 122°34'.

Length 274 m; draft 10.2 m.

Type: Tanker. MMSI: 240959000.

Date/timePositionNaut miles runAvg speedWind from/ knotsBaromVisibWave heightAir tempDewpointWater temp
2014-Sep-19 23:31N 48°36' W 122°34'0 0.0
2014-Sep-19 22:31N 48°36' W 122°34'0 0.0
2014-Sep-19 21:31N 48°36' W 122°34'0 0.1
2014-Sep-19 20:22N 48°36' W 122°34'0 0.1
2014-Sep-19 19:25N 48°36' W 122°34'0 0.1
2014-Sep-19 18:31N 48°36' W 122°34'0 0.0
2014-Sep-19 17:31N 48°36' W 122°34'0 0.1
2014-Sep-19 16:31N 48°36' W 122°34'0 0.2
2014-Sep-19 15:31N 48°36' W 122°34'0 0.1
2014-Sep-19 14:31N 48°36' W 122°34'0 0.0
2014-Sep-19 13:31N 48°36' W 122°34'0 0.0
2014-Sep-19 12:28N 48°36' W 122°34'0 0.1
2014-Sep-19 11:28N 48°36' W 122°34'0 0.1
2014-Sep-19 10:25N 48°36' W 122°34'0 0.1
2014-Sep-19 09:28N 48°36' W 122°34'0 0.0
2014-Sep-19 08:31N 48°36' W 122°34'0 0.0
2014-Sep-19 07:31N 48°36' W 122°34'0 0.0
2014-Sep-19 06:28N 48°36' W 122°34'0 0.0
2014-Sep-19 05:31N 48°36' W 122°34'0 0.1
2014-Sep-19 04:28N 48°36' W 122°34'0 0.1
2014-Sep-19 03:28N 48°36' W 122°34'0 0.1
2014-Sep-19 02:31N 48°36' W 122°34'0 0.1
2014-Sep-19 01:31N 48°36' W 122°34'0 0.1
2014-Sep-19 00:31N 48°36' W 122°34'0 0.1
2014-Sep-18 23:31N 48°36' W 122°34'0 0.1
2014-Sep-18 22:31N 48°36' W 122°34'0 0.1
2014-Sep-18 21:31N 48°36' W 122°34'0 0.0
2014-Sep-18 20:31N 48°36' W 122°34'0 0.0
2014-Sep-18 19:31N 48°36' W 122°34'0 0.0
2014-Sep-18 18:31N 48°36' W 122°34'0 0.0
2014-Sep-18 17:31N 48°36' W 122°34'0 0.1
2014-Sep-18 16:31N 48°36' W 122°34'0 0.1
2014-Sep-18 15:19N 48°36' W 122°34'0 0.1
2014-Sep-18 14:31N 48°36' W 122°34'0 0.0
2014-Sep-18 13:31N 48°36' W 122°34'0 0.0
2014-Sep-18 12:31N 48°36' W 122°34'0 0.1
2014-Sep-18 11:25N 48°36' W 122°34'0 0.0
2014-Sep-18 10:25N 48°36' W 122°34'0 0.0
2014-Sep-18 09:31N 48°36' W 122°34'0 0.0
2014-Sep-18 08:31N 48°36' W 122°34'0 0.0
2014-Sep-18 07:28N 48°36' W 122°34'0 0.0
2014-Sep-18 06:31N 48°36' W 122°34'0 0.1
2014-Sep-18 05:28N 48°36' W 122°34'0 0.0
2014-Sep-18 04:31N 48°36' W 122°34'0 0.2
2014-Sep-18 03:31N 48°36' W 122°34'0 0.1
2014-Sep-18 02:31N 48°36' W 122°34'0 0.0
2014-Sep-18 01:31N 48°36' W 122°34'0 0.0
2014-Sep-18 00:31N 48°36' W 122°34'0 0.0
2014-Sep-17 23:31N 48°36' W 122°34'0 0.2
2014-Sep-17 22:33N 48°36' W 122°34'3 2.9
2014-Sep-17 21:33N 48°38' W 122°37'10 9.7
2014-Sep-17 20:33N 48°46' W 122°46'6 5.6
2014-Sep-17 19:32N 48°52' W 122°46'0 0.0
2014-Sep-16 17:05N 48°52' W 122°46'0 0.4
2014-Sep-16 16:33N 48°52' W 122°46'5 4.8
2014-Sep-16 15:33N 48°47' W 122°46'1110.6
2014-Sep-16 14:33N 48°36' W 122°45'1010.0
2014-Sep-16 13:33N 48°26' W 122°46'1111.1
2014-Sep-16 12:33N 48°19' W 122°59'1111.5
2014-Sep-16 11:33N 48°13' W 123°14'9 8.6
2014-Sep-16 10:33N 48°08' W 123°24'0 0.2
2014-Sep-16 09:31N 48°08' W 123°24'0 0.0
2014-Sep-16 08:28N 48°08' W 123°24'0 0.0
2014-Sep-16 07:31N 48°08' W 123°24'0 0.1
2014-Sep-16 06:31N 48°08' W 123°24'0 0.1
2014-Sep-16 05:31N 48°08' W 123°24'0 0.1
2014-Sep-16 04:31N 48°08' W 123°24'0 0.0
2014-Sep-16 03:31N 48°08' W 123°24'0 0.1
2014-Sep-16 02:31N 48°08' W 123°24'0 0.1
2014-Sep-16 01:31N 48°08' W 123°24'0 0.0
2014-Sep-16 00:25N 48°08' W 123°24'0 0.1
2014-Sep-15 23:31N 48°08' W 123°24'0 0.1
2014-Sep-15 22:31N 48°08' W 123°24'0 0.0
2014-Sep-15 21:28N 48°08' W 123°24'0 0.0
2014-Sep-15 20:31N 48°08' W 123°24'0 0.1
2014-Sep-15 19:31N 48°08' W 123°24'0 0.1
2014-Sep-15 18:31N 48°08' W 123°24'0 0.0
2014-Sep-15 17:31N 48°08' W 123°24'0 0.0
2014-Sep-15 16:31N 48°08' W 123°24'0 0.0
2014-Sep-15 15:31N 48°08' W 123°24'0 0.1
2014-Sep-15 14:28N 48°08' W 123°24'0 0.1
2014-Sep-15 13:31N 48°08' W 123°25'0 0.1
2014-Sep-15 12:28N 48°08' W 123°25'0 0.1
2014-Sep-15 11:31N 48°08' W 123°25'0 0.0
2014-Sep-15 10:31N 48°08' W 123°25'0 0.2
2014-Sep-15 09:31N 48°08' W 123°24'0 0.0
2014-Sep-15 08:31N 48°08' W 123°24'0 0.0
2014-Sep-15 07:31N 48°08' W 123°24'0 0.0
2014-Sep-15 06:31N 48°08' W 123°24'0 0.0
2014-Sep-15 05:25N 48°08' W 123°24'0 0.0
2014-Sep-15 04:31N 48°08' W 123°24'0 0.1
2014-Sep-15 03:28N 48°08' W 123°25'0 0.1
2014-Sep-15 02:28N 48°08' W 123°25'0 0.1
2014-Sep-15 01:28N 48°08' W 123°25'0 0.1
2014-Sep-15 00:22N 48°08' W 123°24'0 0.1
2014-Sep-14 23:31N 48°08' W 123°24'0 0.1
2014-Sep-14 22:25N 48°08' W 123°24'0 0.0
2014-Sep-14 21:16N 48°08' W 123°25'0 0.0
2014-Sep-14 20:16N 48°08' W 123°25'0 0.1
2014-Sep-14 19:31N 48°08' W 123°24'0 0.2
2014-Sep-14 18:28N 48°08' W 123°24'0 0.0
2014-Sep-14 17:31N 48°08' W 123°24'0 0.0
2014-Sep-14 16:28N 48°08' W 123°24'0 0.0
2014-Sep-14 15:31N 48°08' W 123°24'0 0.0
2014-Sep-14 14:28N 48°08' W 123°24'0 0.0
2014-Sep-14 13:31N 48°08' W 123°24'0 0.2
2014-Sep-14 12:28N 48°08' W 123°24'0 0.1
2014-Sep-14 11:31N 48°08' W 123°25'0 0.0
2014-Sep-14 10:22N 48°08' W 123°25'0 0.2
2014-Sep-14 09:28N 48°08' W 123°24'0 0.2
2014-Sep-14 08:31N 48°08' W 123°25'0 0.1
2014-Sep-14 07:31N 48°08' W 123°24'0 0.0
2014-Sep-14 06:31N 48°08' W 123°24'0 0.0
2014-Sep-14 05:31N 48°08' W 123°24'0 0.0
2014-Sep-14 04:31N 48°08' W 123°24'0 0.0
2014-Sep-14 03:25N 48°08' W 123°24'0 0.1
2014-Sep-14 02:25N 48°08' W 123°24'0 0.1
2014-Sep-14 01:31N 48°08' W 123°25'0 0.0
2014-Sep-13 21:31N 48°08' W 123°24'0 0.1
2014-Sep-13 20:31N 48°08' W 123°25'0 0.1
2014-Sep-13 19:25N 48°08' W 123°24'0 0.1
2014-Sep-13 18:31N 48°08' W 123°24'0 0.0
2014-Sep-13 17:16N 48°08' W 123°24'0 0.0
2014-Sep-13 16:25N 48°08' W 123°24'0 0.0
2014-Sep-13 15:25N 48°08' W 123°24'0 0.0
2014-Sep-13 14:31N 48°08' W 123°24'0 0.0
2014-Sep-13 13:31N 48°08' W 123°24'0 0.0
2014-Sep-13 12:31N 48°08' W 123°24'0 0.2
2014-Sep-13 11:31N 48°08' W 123°24'0 0.1
2014-Sep-13 10:31N 48°08' W 123°25'0 0.1
2014-Sep-13 09:28N 48°08' W 123°24'0 0.1
2014-Sep-13 08:31N 48°08' W 123°24'0 0.1
2014-Sep-13 07:31N 48°08' W 123°25'0 0.2
2014-Sep-13 06:31N 48°08' W 123°24'0 0.0
2014-Sep-13 05:28N 48°08' W 123°24'0 0.0
2014-Sep-13 04:31N 48°08' W 123°24'0 0.0
2014-Sep-13 03:31N 48°08' W 123°24'0 0.0
2014-Sep-13 02:28N 48°08' W 123°24'0 0.0
2014-Sep-13 01:31N 48°08' W 123°24'0 0.0
2014-Sep-13 00:31N 48°08' W 123°24'0 0.1
2014-Sep-12 23:28N 48°08' W 123°24'0 0.1
2014-Sep-12 22:31N 48°08' W 123°25'0 0.0
2014-Sep-12 21:31N 48°08' W 123°25'0 0.0
2014-Sep-12 20:22N 48°08' W 123°25'0 0.1
2014-Sep-12 19:31N 48°08' W 123°25'0 0.1
2014-Sep-12 18:31N 48°08' W 123°24'0 0.2
2014-Sep-12 17:31N 48°08' W 123°24'0 0.0
2014-Sep-12 16:28N 48°08' W 123°24'0 0.0
2014-Sep-12 15:22N 48°08' W 123°24'0 0.0
2014-Sep-12 14:31N 48°08' W 123°24'0 0.0
2014-Sep-12 13:31N 48°08' W 123°24'0 0.0
2014-Sep-12 12:28N 48°08' W 123°24'0 0.0
2014-Sep-12 11:28N 48°08' W 123°24'0 0.2
2014-Sep-12 10:31N 48°08' W 123°24'0 0.1
2014-Sep-12 09:19N 48°08' W 123°25'0 0.1
2014-Sep-12 08:31N 48°08' W 123°25'0 0.0
2014-Sep-12 07:31N 48°08' W 123°25'0 0.0
2014-Sep-12 06:31N 48°08' W 123°25'0 0.1
2014-Sep-12 05:31N 48°08' W 123°24'0 0.0
2014-Sep-12 04:31N 48°08' W 123°24'0 0.0
2014-Sep-12 03:25N 48°08' W 123°24'0 0.0
2014-Sep-12 02:31N 48°08' W 123°24'0 0.0
2014-Sep-12 01:31N 48°08' W 123°24'0 0.0
2014-Sep-12 00:31N 48°08' W 123°24'0 0.0
2014-Sep-11 23:31N 48°08' W 123°24'0 0.1
2014-Sep-11 22:28N 48°08' W 123°24'0 0.1
2014-Sep-11 21:22N 48°08' W 123°25'0 0.0
2014-Sep-11 20:31N 48°08' W 123°25'0 0.0
2014-Sep-11 19:31N 48°08' W 123°24'0 0.1
2014-Sep-11 18:31N 48°08' W 123°25'0 0.1
2014-Sep-11 17:31N 48°08' W 123°24'0 0.0
2014-Sep-11 16:22N 48°08' W 123°24'0 0.0
2014-Sep-11 15:31N 48°08' W 123°24'0 0.1
2014-Sep-11 14:25N 48°08' W 123°24'0 0.0
2014-Sep-11 13:31N 48°08' W 123°24'0 0.0
2014-Sep-11 12:32N 48°08' W 123°24'0 0.0
2014-Sep-11 11:25N 48°08' W 123°24'0 0.0
2014-Sep-11 10:31N 48°08' W 123°24'0 0.2
2014-Sep-11 09:25N 48°08' W 123°24'0 0.1
2014-Sep-11 08:28N 48°08' W 123°24'0 0.1
2014-Sep-11 07:31N 48°08' W 123°24'0 0.1
2014-Sep-11 06:16N 48°08' W 123°24'0 0.1
2014-Sep-11 05:31N 48°08' W 123°25'0 0.1
2014-Sep-11 04:28N 48°08' W 123°24'0 0.1
2014-Sep-11 03:22N 48°08' W 123°24'0 0.0
2014-Sep-11 02:31N 48°08' W 123°24'0 0.0
2014-Sep-11 01:31N 48°08' W 123°24'0 0.0
2014-Sep-11 00:25N 48°08' W 123°24'0 0.0
2014-Sep-10 23:31N 48°08' W 123°24'0 0.0
2014-Sep-10 22:31N 48°08' W 123°24'0 0.1
2014-Sep-10 21:28N 48°08' W 123°24'0 0.1
2014-Sep-10 20:31N 48°08' W 123°25'0 0.1
2014-Sep-10 19:31N 48°08' W 123°25'0 0.1
2014-Sep-10 18:28N 48°08' W 123°24'0 0.0
2014-Sep-10 17:31N 48°08' W 123°24'0 0.1
2014-Sep-10 16:28N 48°08' W 123°25'0 0.1
2014-Sep-10 15:31N 48°08' W 123°24'0 0.0
2014-Sep-10 14:31N 48°08' W 123°24'0 0.0
2014-Sep-10 13:31N 48°08' W 123°24'0 0.0
2014-Sep-10 12:28N 48°08' W 123°24'0 0.0
2014-Sep-10 11:31N 48°08' W 123°24'0 0.1
2014-Sep-10 10:31N 48°08' W 123°24'0 0.0
2014-Sep-10 09:31N 48°08' W 123°24'0 0.2
2014-Sep-10 08:31N 48°08' W 123°24'0 0.0
2014-Sep-10 07:31N 48°08' W 123°24'0 0.1
2014-Sep-10 06:31N 48°08' W 123°24'0 0.1
2014-Sep-10 05:31N 48°08' W 123°24'0 0.1
2014-Sep-10 04:28N 48°08' W 123°24'0 0.1
2014-Sep-10 03:25N 48°08' W 123°24'0 0.1
2014-Sep-10 02:31N 48°08' W 123°24'0 0.0
2014-Sep-10 01:28N 48°08' W 123°24'0 0.0
2014-Sep-10 00:31N 48°08' W 123°24'  

Dump ship's entire track history